createdAt,value
2022-09-03T00:14:00.562Z,15.83
2022-09-03T00:52:16.750Z,15.58
2022-09-03T01:25:06.568Z,15.37
2022-09-03T12:22:41.381Z,26.04
2022-09-03T12:23:42.190Z,25.88
2022-09-03T12:36:57.539Z,25.92
2022-09-03T12:38:08.758Z,25.93
2022-09-03T12:39:11.546Z,25.66
2022-09-03T12:40:07.686Z,25.53
2022-09-03T12:41:58.289Z,25.90
2022-09-03T12:43:37.051Z,25.85
2022-09-03T12:43:58.291Z,25.80
2022-09-03T12:44:58.555Z,25.97
2022-09-03T12:46:13.719Z,26.02
2022-09-03T12:47:58.264Z,26.26
2022-09-03T12:49:58.188Z,26.49
2022-09-03T12:50:58.377Z,26.43
2022-09-03T12:52:00.774Z,26.33
2022-09-03T12:52:58.183Z,26.34
2022-09-03T12:53:58.250Z,26.38
2022-09-03T12:54:58.150Z,26.48
2022-09-03T12:55:58.124Z,26.45
2022-09-03T12:56:58.128Z,26.57
2022-09-03T12:58:02.523Z,26.50
2022-09-03T12:58:58.100Z,26.45
2022-09-03T12:59:58.179Z,26.55
2022-09-03T13:00:58.200Z,26.37
2022-09-03T13:01:58.186Z,26.10
2022-09-03T13:02:58.075Z,26.04
2022-09-03T13:03:58.992Z,26.22
2022-09-03T13:04:58.067Z,26.28
2022-09-03T13:34:55.918Z,26.92
2022-09-03T14:46:21.692Z,26.53
2022-09-03T14:47:19.580Z,26.52
2022-09-03T15:08:20.836Z,26.40
2022-09-03T15:09:21.166Z,26.50
2022-09-03T15:17:40.824Z,25.97
2022-09-03T15:18:41.654Z,25.92
2022-09-03T15:19:41.585Z,25.99
2022-09-03T15:52:16.540Z,24.96
2022-09-03T15:55:46.789Z,25.10
2022-09-03T16:42:40.055Z,24.63
2022-09-03T16:53:22.548Z,24.33
2022-09-03T19:17:39.276Z,20.53
2022-09-03T19:18:29.668Z,20.52
2022-09-03T19:19:29.689Z,20.50
2022-09-03T19:20:29.615Z,20.50
2022-09-03T19:21:29.660Z,20.47
2022-09-03T19:22:29.605Z,20.44
2022-09-03T19:23:29.644Z,20.41
2022-09-03T19:24:31.052Z,20.41
2022-09-03T19:25:29.617Z,20.40
2022-09-03T19:26:29.544Z,20.41
2022-09-03T19:27:53.040Z,20.40
2022-09-03T19:28:29.561Z,20.36
2022-09-03T19:29:29.515Z,20.28
2022-09-03T19:30:29.559Z,20.28
2022-09-03T19:31:29.767Z,20.25
2022-09-03T19:32:29.518Z,20.22
2022-09-03T19:33:29.498Z,20.19
2022-09-03T19:34:29.472Z,20.19
2022-09-03T19:35:29.453Z,20.17
2022-09-03T19:36:29.528Z,20.17
2022-09-03T19:37:29.464Z,20.18
2022-09-03T19:38:29.461Z,20.19
2022-09-03T19:39:29.490Z,20.18
2022-09-03T19:40:29.403Z,20.17
2022-09-03T19:41:29.417Z,20.17
2022-09-03T19:42:29.391Z,20.11
2022-09-03T19:43:31.638Z,20.11
2022-09-03T19:44:29.400Z,20.07
2022-09-03T19:45:29.357Z,20.07
2022-09-03T19:46:29.368Z,20.04
